createdAt,value
2023-05-19T00:00:11.964Z,481.00
2023-05-19T00:00:42.030Z,481.00
2023-05-19T00:01:12.079Z,478.00
2023-05-19T00:01:42.124Z,478.00
2023-05-19T00:02:12.230Z,476.00
2023-05-19T00:02:42.489Z,476.00
2023-05-19T00:03:12.408Z,477.00
2023-05-19T00:03:42.368Z,475.00
2023-05-19T00:04:12.418Z,475.00
2023-05-19T00:04:42.497Z,476.00
2023-05-19T00:05:12.544Z,478.00
2023-05-19T00:05:42.615Z,478.00
2023-05-19T00:06:12.659Z,477.00
2023-05-19T00:06:42.694Z,476.00
2023-05-19T00:07:12.772Z,478.00
2023-05-19T00:07:42.807Z,479.00
2023-05-19T00:08:12.856Z,479.00
2023-05-19T00:08:42.885Z,479.00
2023-05-19T00:09:12.926Z,481.00
2023-05-19T00:09:42.962Z,480.00
2023-05-19T00:10:13.012Z,481.00
2023-05-19T00:10:43.064Z,481.00
2023-05-19T00:11:13.164Z,483.00
2023-05-19T00:11:43.144Z,483.00
2023-05-19T00:12:13.230Z,483.00
2023-05-19T00:12:43.333Z,486.00
2023-05-19T00:13:13.403Z,483.00
2023-05-19T00:13:43.483Z,483.00
2023-05-19T00:14:13.500Z,482.00
2023-05-19T00:14:43.575Z,481.00
2023-05-19T00:15:13.661Z,483.00
2023-05-19T00:15:43.752Z,477.00
2023-05-19T00:16:13.880Z,479.00
2023-05-19T00:16:43.839Z,476.00
2023-05-19T00:17:13.914Z,477.00
2023-05-19T00:17:44.056Z,476.00
2023-05-19T00:18:14.307Z,480.00
2023-05-19T00:18:44.119Z,473.00
2023-05-19T00:19:14.125Z,478.00
2023-05-19T00:19:44.206Z,480.00
2023-05-19T00:20:14.289Z,478.00
2023-05-19T00:20:44.398Z,481.00
2023-05-19T00:21:14.466Z,479.00
2023-05-19T00:21:44.550Z,481.00
2023-05-19T00:22:14.634Z,481.00
2023-05-19T00:22:44.759Z,482.00
2023-05-19T00:23:14.823Z,485.00
2023-05-19T00:23:44.900Z,484.00
2023-05-19T00:24:15.000Z,482.00
2023-05-19T00:24:45.081Z,482.00
2023-05-19T00:25:15.166Z,484.00
2023-05-19T00:25:45.265Z,484.00
2023-05-19T00:26:15.343Z,485.00
2023-05-19T00:26:45.412Z,471.00
2023-05-19T00:27:15.513Z,479.00
2023-05-19T00:27:45.593Z,479.00
2023-05-19T00:28:15.682Z,482.00
2023-05-19T00:28:45.804Z,484.00
2023-05-19T00:29:15.857Z,484.00
2023-05-19T00:29:45.952Z,484.00
2023-05-19T00:30:16.038Z,485.00
2023-05-19T00:30:46.122Z,482.00
2023-05-19T00:31:16.232Z,482.00
2023-05-19T00:31:46.311Z,476.00
2023-05-19T00:32:16.274Z,479.00
2023-05-19T00:32:46.287Z,478.00
2023-05-19T00:33:16.252Z,480.00
2023-05-19T00:33:46.344Z,480.00
2023-05-19T00:34:16.434Z,480.00
2023-05-19T00:34:46.512Z,480.00
2023-05-19T00:35:16.611Z,482.00
2023-05-19T00:35:46.688Z,482.00
2023-05-19T00:36:16.767Z,485.00
2023-05-19T00:36:46.866Z,484.00
2023-05-19T00:37:16.932Z,480.00
2023-05-19T00:37:47.067Z,478.00
2023-05-19T00:38:17.129Z,481.00
2023-05-19T00:38:47.205Z,480.00
2023-05-19T00:39:17.321Z,479.00
2023-05-19T00:39:47.390Z,478.00
2023-05-19T00:40:17.482Z,480.00
2023-05-19T00:40:47.561Z,483.00
2023-05-19T00:41:17.679Z,478.00
2023-05-19T00:41:47.745Z,479.00
2023-05-19T00:42:17.836Z,480.00
2023-05-19T00:42:47.941Z,482.00
2023-05-19T00:43:18.010Z,480.00
2023-05-19T00:43:48.117Z,479.00
2023-05-19T00:44:18.209Z,480.00
2023-05-19T00:44:48.294Z,478.00
2023-05-19T00:45:18.371Z,478.00
2023-05-19T00:45:48.463Z,477.00
2023-05-19T00:46:18.579Z,475.00
2023-05-19T00:46:48.594Z,475.00
2023-05-19T00:47:18.607Z,474.00
2023-05-19T00:47:48.765Z,475.00
2023-05-19T00:48:18.824Z,474.00
2023-05-19T00:48:48.911Z,476.00
2023-05-19T00:49:19.001Z,473.00
2023-05-19T00:49:49.073Z,473.00
2023-05-19T00:50:19.158Z,470.00
2023-05-19T00:50:49.247Z,470.00
2023-05-19T00:51:19.323Z,476.00
2023-05-19T00:51:49.418Z,475.00
2023-05-19T00:52:19.498Z,474.00
2023-05-19T00:52:49.595Z,474.00
2023-05-19T00:53:19.685Z,475.00
2023-05-19T00:53:49.769Z,475.00
2023-05-19T00:54:19.859Z,475.00
2023-05-19T00:54:49.944Z,475.00
2023-05-19T00:55:20.025Z,475.00
2023-05-19T00:55:50.118Z,474.00
2023-05-19T00:56:20.202Z,474.00
2023-05-19T00:56:50.302Z,474.00
2023-05-19T00:57:20.382Z,474.00
2023-05-19T00:57:50.486Z,473.00
2023-05-19T00:58:20.587Z,473.00
2023-05-19T00:58:50.677Z,474.00
2023-05-19T00:59:20.759Z,481.00
2023-05-19T00:59:50.837Z,481.00
2023-05-19T01:00:20.929Z,481.00
2023-05-19T01:00:51.019Z,481.00
2023-05-19T01:01:21.104Z,481.00
2023-05-19T01:01:51.142Z,480.00
2023-05-19T01:02:21.308Z,481.00
2023-05-19T01:02:51.319Z,481.00
2023-05-19T01:03:21.342Z,478.00
2023-05-19T01:03:51.491Z,478.00
2023-05-19T01:04:21.396Z,488.00
2023-05-19T01:04:51.450Z,484.00
2023-05-19T01:05:21.491Z,482.00
2023-05-19T01:05:51.538Z,485.00
2023-05-19T01:06:21.582Z,482.00
2023-05-19T01:06:51.648Z,479.00
2023-05-19T01:07:21.692Z,482.00
2023-05-19T01:07:51.739Z,484.00
2023-05-19T01:08:21.810Z,478.00
2023-05-19T01:08:51.839Z,481.00
2023-05-19T01:09:21.868Z,479.00
2023-05-19T01:09:51.906Z,480.00
2023-05-19T01:10:21.948Z,476.00
2023-05-19T01:10:52.028Z,477.00
2023-05-19T01:11:22.115Z,476.00
2023-05-19T01:11:52.213Z,475.00
2023-05-19T01:12:22.314Z,475.00
2023-05-19T01:12:52.404Z,475.00
2023-05-19T01:13:22.490Z,473.00
2023-05-19T01:13:52.582Z,477.00
2023-05-19T01:14:22.661Z,479.00
2023-05-19T01:14:52.750Z,472.00
2023-05-19T01:15:22.827Z,473.00
2023-05-19T01:15:52.922Z,472.00
2023-05-19T01:16:23.137Z,476.00
2023-05-19T01:16:53.159Z,477.00
2023-05-19T01:17:23.044Z,476.00
2023-05-19T01:17:53.180Z,478.00
2023-05-19T01:18:23.137Z,480.00
2023-05-19T01:18:53.240Z,479.00
2023-05-19T01:19:23.445Z,481.00
2023-05-19T01:19:53.422Z,479.00
2023-05-19T01:20:23.499Z,480.00
2023-05-19T01:20:53.594Z,477.00
2023-05-19T01:21:23.701Z,474.00
2023-05-19T01:21:53.779Z,473.00
2023-05-19T01:22:23.888Z,472.00
2023-05-19T01:22:53.954Z,473.00
2023-05-19T01:23:24.072Z,471.00
2023-05-19T01:23:54.076Z,472.00
2023-05-19T01:24:24.135Z,471.00
2023-05-19T01:24:54.214Z,470.00
2023-05-19T01:25:24.329Z,472.00
2023-05-19T01:25:54.403Z,471.00
2023-05-19T01:26:24.484Z,468.00
2023-05-19T01:26:54.572Z,468.00
2023-05-19T01:27:24.676Z,468.00
2023-05-19T01:27:54.754Z,470.00
2023-05-19T01:28:24.833Z,470.00
2023-05-19T01:28:54.917Z,472.00
2023-05-19T01:29:25.027Z,470.00
2023-05-19T01:29:55.180Z,471.00
2023-05-19T01:30:25.229Z,469.00
2023-05-19T01:30:55.224Z,470.00
2023-05-19T01:31:25.408Z,470.00
2023-05-19T01:31:55.428Z,471.00
2023-05-19T01:32:25.534Z,473.00
2023-05-19T01:32:55.640Z,475.00
2023-05-19T01:33:25.625Z,475.00
2023-05-19T01:33:55.710Z,476.00
2023-05-19T01:34:25.794Z,476.00
2023-05-19T01:34:55.893Z,475.00
2023-05-19T01:35:25.988Z,474.00
2023-05-19T01:35:56.088Z,475.00
2023-05-19T01:36:26.176Z,473.00
2023-05-19T01:36:56.263Z,474.00
2023-05-19T01:37:26.361Z,474.00
2023-05-19T01:37:56.439Z,474.00
2023-05-19T01:38:26.522Z,471.00
2023-05-19T01:38:56.622Z,471.00
2023-05-19T01:39:26.690Z,472.00
2023-05-19T01:39:56.788Z,470.00
2023-05-19T01:40:26.899Z,472.00
2023-05-19T01:40:56.941Z,473.00
2023-05-19T01:41:27.031Z,470.00
2023-05-19T01:41:57.111Z,471.00
2023-05-19T01:42:27.214Z,471.00
2023-05-19T01:42:57.831Z,472.00
2023-05-19T01:43:27.329Z,474.00
2023-05-19T01:43:57.415Z,473.00
2023-05-19T01:44:27.524Z,472.00
2023-05-19T01:44:57.601Z,473.00
2023-05-19T01:45:27.688Z,473.00
2023-05-19T01:45:57.799Z,473.00
2023-05-19T01:46:27.991Z,471.00
2023-05-19T01:46:57.900Z,472.00
2023-05-19T01:47:28.003Z,473.00
2023-05-19T01:47:58.286Z,473.00
2023-05-19T01:48:28.180Z,471.00
2023-05-19T01:48:58.285Z,471.00
2023-05-19T01:49:28.357Z,470.00
2023-05-19T01:49:58.465Z,470.00
2023-05-19T01:50:28.551Z,469.00
2023-05-19T01:50:58.630Z,469.00
2023-05-19T01:51:28.701Z,471.00
2023-05-19T01:51:58.781Z,470.00
2023-05-19T01:52:28.876Z,467.00
2023-05-19T01:52:58.961Z,470.00
2023-05-19T01:53:29.044Z,471.00
2023-05-19T01:53:59.283Z,472.00
2023-05-19T01:54:29.242Z,475.00
2023-05-19T01:54:59.324Z,477.00
2023-05-19T01:55:29.407Z,476.00
2023-05-19T01:55:59.490Z,475.00
2023-05-19T01:56:29.590Z,476.00
2023-05-19T01:56:59.680Z,478.00
2023-05-19T01:57:29.761Z,474.00
2023-05-19T01:57:59.846Z,472.00
2023-05-19T01:58:29.953Z,471.00
2023-05-19T01:58:59.946Z,469.00
2023-05-19T01:59:30.032Z,470.00
2023-05-19T02:00:00.119Z,474.00
2023-05-19T02:00:30.331Z,472.00
2023-05-19T02:01:00.201Z,472.00
2023-05-19T02:01:30.298Z,472.00
2023-05-19T02:02:00.230Z,474.00
2023-05-19T02:02:30.321Z,473.00
2023-05-19T02:03:00.289Z,471.00
2023-05-19T02:03:30.329Z,471.00
2023-05-19T02:04:00.394Z,471.00
2023-05-19T02:04:30.497Z,470.00
2023-05-19T02:05:00.466Z,474.00
2023-05-19T02:05:30.516Z,473.00
2023-05-19T02:06:00.547Z,473.00
2023-05-19T02:06:30.597Z,471.00
2023-05-19T02:07:00.632Z,470.00
2023-05-19T02:07:30.692Z,470.00
2023-05-19T02:08:00.740Z,470.00
2023-05-19T02:08:30.788Z,468.00
2023-05-19T02:09:00.829Z,468.00
2023-05-19T02:09:30.882Z,469.00
2023-05-19T02:10:00.896Z,470.00
2023-05-19T02:10:31.304Z,471.00
2023-05-19T02:11:00.982Z,471.00
2023-05-19T02:11:31.054Z,472.00
2023-05-19T02:12:01.153Z,473.00
2023-05-19T02:12:31.242Z,472.00
2023-05-19T02:13:01.322Z,474.00
2023-05-19T02:13:31.396Z,473.00
2023-05-19T02:14:01.485Z,475.00
2023-05-19T02:14:31.573Z,475.00
2023-05-19T02:15:01.666Z,476.00
2023-05-19T02:15:31.777Z,474.00
2023-05-19T02:16:01.960Z,472.00
2023-05-19T02:16:31.931Z,471.00
2023-05-19T02:17:02.023Z,471.00
2023-05-19T02:17:32.172Z,472.00
2023-05-19T02:18:02.208Z,471.00
2023-05-19T02:18:32.200Z,470.00
2023-05-19T02:19:02.339Z,471.00
2023-05-19T02:19:32.310Z,473.00
2023-05-19T02:20:02.384Z,473.00
2023-05-19T02:20:32.709Z,474.00
2023-05-19T02:21:02.528Z,474.00
2023-05-19T02:21:32.629Z,472.00
2023-05-19T02:22:02.718Z,474.00
2023-05-19T02:22:32.794Z,474.00
2023-05-19T02:23:02.873Z,474.00
2023-05-19T02:23:32.964Z,473.00
2023-05-19T02:24:03.041Z,473.00
2023-05-19T02:24:33.376Z,475.00
2023-05-19T02:25:03.244Z,470.00
2023-05-19T02:26:03.311Z,468.00
2023-05-19T02:26:33.330Z,468.00
2023-05-19T02:27:03.327Z,469.00
2023-05-19T02:27:33.281Z,470.00
2023-05-19T02:28:03.388Z,470.00
2023-05-19T02:28:33.451Z,472.00
2023-05-19T02:29:03.534Z,472.00
2023-05-19T02:29:33.626Z,473.00
2023-05-19T02:30:03.715Z,473.00
2023-05-19T02:30:34.010Z,476.00
2023-05-19T02:31:03.909Z,475.00
2023-05-19T02:31:34.039Z,477.00
2023-05-19T02:32:04.150Z,477.00
2023-05-19T02:32:34.142Z,477.00
2023-05-19T02:33:34.149Z,478.00
2023-05-19T02:34:04.247Z,477.00
2023-05-19T02:34:34.333Z,477.00
2023-05-19T02:35:04.421Z,476.00
2023-05-19T02:35:34.530Z,473.00
2023-05-19T02:36:04.506Z,476.00
2023-05-19T02:36:34.593Z,474.00
2023-05-19T02:37:04.687Z,472.00
2023-05-19T02:37:34.751Z,471.00
2023-05-19T02:38:04.846Z,469.00
2023-05-19T02:38:34.926Z,468.00
2023-05-19T02:39:05.004Z,473.00
2023-05-19T02:39:35.143Z,474.00
2023-05-19T02:40:05.140Z,478.00
2023-05-19T02:40:35.223Z,475.00
2023-05-19T02:41:05.314Z,478.00
2023-05-19T02:41:35.420Z,479.00
2023-05-19T02:42:05.483Z,477.00
2023-05-19T02:42:35.582Z,478.00
2023-05-19T02:43:05.656Z,476.00
2023-05-19T02:43:35.762Z,475.00
2023-05-19T02:44:05.846Z,475.00
2023-05-19T02:44:35.932Z,474.00
2023-05-19T02:45:06.028Z,468.00
2023-05-19T02:45:36.110Z,471.00
2023-05-19T02:46:06.256Z,475.00
2023-05-19T02:46:36.282Z,476.00
2023-05-19T02:47:06.285Z,469.00
2023-05-19T02:47:37.192Z,467.00
2023-05-19T02:48:06.483Z,467.00
2023-05-19T02:48:36.460Z,467.00
2023-05-19T02:49:06.537Z,469.00
2023-05-19T02:49:36.658Z,469.00
2023-05-19T02:50:06.628Z,470.00
2023-05-19T02:50:36.712Z,468.00
2023-05-19T02:51:06.796Z,468.00
2023-05-19T02:51:36.873Z,469.00
2023-05-19T02:52:06.975Z,469.00
2023-05-19T02:52:37.060Z,469.00
2023-05-19T02:53:07.152Z,468.00
2023-05-19T02:53:37.212Z,468.00
2023-05-19T02:54:07.345Z,469.00
2023-05-19T02:54:37.301Z,470.00
2023-05-19T02:55:07.407Z,469.00
2023-05-19T02:55:37.420Z,469.00
2023-05-19T02:56:07.525Z,469.00
2023-05-19T02:56:37.611Z,470.00
2023-05-19T02:57:07.697Z,472.00
2023-05-19T02:57:37.792Z,472.00
2023-05-19T02:58:07.906Z,472.00
2023-05-19T02:58:37.895Z,472.00
2023-05-19T02:59:07.987Z,472.00
2023-05-19T02:59:38.084Z,474.00
2023-05-19T03:00:08.162Z,473.00
2023-05-19T03:00:38.264Z,472.00
2023-05-19T03:01:08.286Z,470.00
2023-05-19T03:01:38.336Z,471.00
2023-05-19T03:02:08.594Z,469.00
2023-05-19T03:02:38.551Z,470.00
2023-05-19T03:03:08.588Z,470.00
2023-05-19T03:03:38.632Z,470.00
2023-05-19T03:04:08.706Z,469.00
2023-05-19T03:04:38.649Z,470.00
2023-05-19T03:05:08.703Z,472.00
2023-05-19T03:05:38.735Z,474.00
2023-05-19T03:06:08.825Z,477.00
2023-05-19T03:06:38.865Z,473.00
2023-05-19T03:07:08.900Z,472.00
2023-05-19T03:07:38.947Z,470.00
2023-05-19T03:08:08.984Z,470.00
2023-05-19T03:08:41.528Z,470.00
2023-05-19T03:09:09.091Z,471.00
2023-05-19T03:09:39.141Z,470.00
2023-05-19T03:10:09.163Z,468.00
2023-05-19T03:10:39.256Z,471.00
2023-05-19T03:11:09.330Z,472.00
2023-05-19T03:11:39.421Z,469.00
2023-05-19T03:12:09.508Z,469.00
2023-05-19T03:12:39.598Z,468.00
2023-05-19T03:13:09.707Z,471.00
2023-05-19T03:13:39.791Z,471.00
2023-05-19T03:14:09.868Z,470.00
2023-05-19T03:14:39.968Z,471.00
2023-05-19T03:15:10.058Z,468.00
2023-05-19T03:15:40.152Z,470.00
2023-05-19T03:16:10.242Z,468.00
2023-05-19T03:16:40.424Z,468.00
2023-05-19T03:17:10.431Z,469.00
2023-05-19T03:17:40.389Z,470.00
2023-05-19T03:18:10.464Z,470.00
2023-05-19T03:18:40.442Z,469.00
2023-05-19T03:19:10.559Z,469.00
2023-05-19T03:19:40.569Z,471.00
2023-05-19T03:20:10.652Z,469.00
2023-05-19T03:20:41.767Z,471.00
2023-05-19T03:21:10.815Z,473.00
2023-05-19T03:21:40.909Z,472.00
2023-05-19T03:22:11.007Z,473.00
2023-05-19T03:22:41.094Z,472.00
2023-05-19T03:23:11.193Z,471.00
2023-05-19T03:23:41.267Z,469.00
2023-05-19T03:24:11.359Z,467.00
2023-05-19T03:24:41.440Z,467.00
2023-05-19T03:25:11.530Z,468.00
2023-05-19T03:25:41.627Z,469.00
2023-05-19T03:26:11.740Z,468.00
2023-05-19T03:26:41.813Z,468.00
2023-05-19T03:27:11.902Z,467.00
2023-05-19T03:27:42.017Z,467.00
2023-05-19T03:28:12.084Z,466.00
2023-05-19T03:28:42.160Z,466.00
2023-05-19T03:29:12.249Z,468.00
2023-05-19T03:29:42.359Z,468.00
2023-05-19T03:30:12.413Z,470.00
2023-05-19T03:30:42.485Z,470.00
2023-05-19T03:31:12.585Z,472.00
2023-05-19T03:31:42.713Z,471.00
2023-05-19T03:32:12.754Z,471.00
2023-05-19T03:32:42.834Z,470.00
2023-05-19T03:33:13.012Z,468.00
2023-05-19T03:33:42.898Z,470.00
2023-05-19T03:34:12.899Z,469.00
2023-05-19T03:34:42.973Z,470.00
2023-05-19T03:35:13.063Z,469.00
2023-05-19T03:35:43.167Z,469.00
2023-05-19T03:36:13.457Z,469.00
2023-05-19T03:36:43.290Z,467.00
2023-05-19T03:37:13.370Z,467.00
2023-05-19T03:37:43.465Z,466.00
2023-05-19T03:38:13.549Z,464.00
2023-05-19T03:38:43.626Z,456.00
2023-05-19T03:39:13.708Z,458.00
2023-05-19T03:39:43.807Z,465.00
2023-05-19T03:40:13.880Z,469.00
2023-05-19T03:40:43.996Z,467.00
2023-05-19T03:41:14.092Z,467.00
2023-05-19T03:41:44.143Z,465.00
2023-05-19T03:42:14.241Z,466.00
2023-05-19T03:42:44.349Z,467.00
2023-05-19T03:43:14.426Z,466.00
2023-05-19T03:43:44.528Z,465.00
2023-05-19T03:44:14.594Z,467.00
2023-05-19T03:44:44.689Z,467.00
2023-05-19T03:45:14.785Z,465.00
2023-05-19T03:45:44.895Z,467.00
2023-05-19T03:46:15.043Z,463.00
2023-05-19T03:46:45.019Z,464.00
2023-05-19T03:47:15.111Z,465.00
2023-05-19T03:47:45.240Z,467.00
2023-05-19T03:48:15.211Z,465.00
2023-05-19T03:48:45.291Z,465.00
2023-05-19T03:49:15.370Z,465.00
2023-05-19T03:49:45.471Z,466.00
2023-05-19T03:50:15.458Z,467.00
2023-05-19T03:50:45.543Z,466.00
2023-05-19T03:51:15.615Z,469.00
2023-05-19T03:51:45.705Z,469.00
2023-05-19T03:52:15.804Z,472.00
2023-05-19T03:52:45.881Z,472.00
2023-05-19T03:53:15.961Z,471.00
2023-05-19T03:53:46.053Z,468.00
2023-05-19T03:54:16.115Z,469.00
2023-05-19T03:54:46.212Z,469.00
2023-05-19T03:55:16.306Z,469.00
2023-05-19T03:55:46.366Z,470.00
2023-05-19T03:56:16.469Z,470.00
2023-05-19T03:56:46.540Z,470.00
2023-05-19T03:57:16.620Z,469.00
2023-05-19T03:57:46.701Z,470.00
2023-05-19T03:58:16.800Z,470.00
2023-05-19T03:58:46.892Z,469.00
2023-05-19T03:59:16.976Z,469.00
2023-05-19T03:59:47.051Z,471.00
2023-05-19T04:00:17.146Z,470.00
2023-05-19T04:00:47.195Z,470.00
2023-05-19T04:01:17.229Z,470.00
2023-05-19T04:01:47.280Z,468.00
2023-05-19T04:02:17.350Z,469.00
2023-05-19T04:02:47.479Z,472.00
2023-05-19T04:03:17.494Z,474.00
2023-05-19T04:03:47.553Z,474.00
2023-05-19T04:04:17.583Z,472.00
2023-05-19T04:04:47.665Z,471.00
2023-05-19T04:05:17.579Z,472.00
2023-05-19T04:05:47.617Z,472.00
2023-05-19T04:06:17.668Z,472.00
2023-05-19T04:06:47.711Z,472.00
2023-05-19T04:07:17.760Z,471.00
2023-05-19T04:07:47.801Z,472.00
2023-05-19T04:08:17.865Z,472.00
2023-05-19T04:08:47.917Z,469.00
2023-05-19T04:09:17.956Z,469.00
2023-05-19T04:09:48.009Z,471.00
2023-05-19T04:10:18.045Z,474.00
2023-05-19T04:10:48.115Z,475.00
2023-05-19T04:11:18.206Z,474.00
2023-05-19T04:11:48.327Z,473.00
2023-05-19T04:12:18.403Z,473.00
2023-05-19T04:12:48.474Z,472.00
2023-05-19T04:13:18.570Z,474.00
2023-05-19T04:13:48.692Z,474.00
2023-05-19T04:14:18.753Z,474.00
2023-05-19T04:14:48.836Z,472.00
2023-05-19T04:15:18.937Z,473.00
2023-05-19T04:15:49.057Z,470.00
2023-05-19T04:16:19.078Z,472.00
2023-05-19T04:16:49.100Z,469.00
2023-05-19T04:17:19.204Z,468.00
2023-05-19T04:17:49.350Z,468.00
2023-05-19T04:18:19.325Z,469.00
2023-05-19T04:18:49.491Z,467.00
2023-05-19T04:19:19.552Z,468.00
2023-05-19T04:19:49.553Z,467.00
2023-05-19T04:20:19.637Z,467.00
2023-05-19T04:20:49.724Z,467.00
2023-05-19T04:21:19.809Z,468.00
2023-05-19T04:21:49.891Z,468.00
2023-05-19T04:22:19.980Z,468.00
2023-05-19T04:22:50.066Z,467.00
2023-05-19T04:23:20.155Z,469.00
2023-05-19T04:23:50.256Z,469.00
2023-05-19T04:24:20.321Z,468.00
2023-05-19T04:24:50.400Z,468.00
2023-05-19T04:25:20.503Z,471.00
2023-05-19T04:25:50.586Z,472.00
2023-05-19T04:26:20.661Z,472.00
2023-05-19T04:26:50.775Z,472.00
2023-05-19T04:27:20.842Z,472.00
2023-05-19T04:27:50.958Z,473.00
2023-05-19T04:28:21.006Z,474.00
2023-05-19T04:28:51.089Z,474.00
2023-05-19T04:29:21.183Z,473.00
2023-05-19T04:29:51.264Z,473.00
2023-05-19T04:30:21.355Z,471.00
2023-05-19T04:30:51.464Z,471.00
2023-05-19T04:31:21.523Z,471.00
2023-05-19T04:31:51.560Z,471.00
2023-05-19T04:32:21.640Z,465.00
2023-05-19T04:32:51.765Z,461.00
2023-05-19T04:33:21.766Z,466.00
2023-05-19T04:33:51.853Z,467.00
2023-05-19T04:34:21.858Z,466.00
2023-05-19T04:34:51.944Z,463.00
2023-05-19T04:35:22.020Z,465.00
2023-05-19T04:35:52.100Z,469.00
2023-05-19T04:36:22.203Z,472.00
2023-05-19T04:36:53.517Z,474.00
2023-05-19T04:37:22.347Z,474.00
2023-05-19T04:37:52.414Z,472.00
2023-05-19T04:38:22.492Z,472.00
2023-05-19T04:38:52.569Z,473.00
2023-05-19T04:39:22.680Z,475.00
2023-05-19T04:39:52.740Z,472.00
2023-05-19T04:40:22.857Z,473.00
2023-05-19T04:40:52.948Z,471.00
2023-05-19T04:41:23.049Z,472.00
2023-05-19T04:41:53.134Z,471.00
2023-05-19T04:42:23.236Z,473.00
2023-05-19T04:42:53.285Z,473.00
2023-05-19T04:43:23.400Z,474.00
2023-05-19T04:43:53.461Z,470.00
2023-05-19T04:44:23.535Z,470.00
2023-05-19T04:44:53.627Z,465.00
2023-05-19T04:45:23.724Z,468.00
2023-05-19T04:45:53.920Z,466.00
2023-05-19T04:46:24.006Z,470.00
2023-05-19T04:46:54.109Z,472.00
2023-05-19T04:47:24.061Z,469.00
2023-05-19T04:47:54.070Z,470.00
2023-05-19T04:48:24.035Z,473.00
2023-05-19T04:48:54.132Z,473.00
2023-05-19T04:49:24.236Z,472.00
2023-05-19T04:49:54.316Z,471.00
2023-05-19T04:50:24.424Z,469.00
2023-05-19T04:50:54.492Z,466.00
2023-05-19T04:51:24.584Z,470.00
2023-05-19T04:51:55.827Z,470.00
2023-05-19T04:52:24.790Z,470.00
2023-05-19T04:52:54.852Z,468.00
2023-05-19T04:53:24.943Z,469.00
2023-05-19T04:53:55.039Z,469.00
2023-05-19T04:54:25.108Z,468.00
2023-05-19T04:54:55.198Z,464.00
2023-05-19T04:55:25.286Z,465.00
2023-05-19T04:55:55.381Z,465.00
2023-05-19T04:56:25.464Z,469.00
2023-05-19T04:56:55.541Z,465.00
2023-05-19T04:57:25.671Z,463.00
2023-05-19T04:57:55.739Z,463.00
2023-05-19T04:58:25.825Z,465.00
2023-05-19T04:58:55.909Z,466.00
2023-05-19T04:59:25.993Z,467.00
2023-05-19T04:59:56.091Z,469.00
2023-05-19T05:00:26.171Z,466.00
2023-05-19T05:00:57.073Z,465.00
2023-05-19T05:01:26.573Z,466.00
2023-05-19T05:02:26.420Z,464.00
2023-05-19T05:02:56.479Z,466.00
2023-05-19T05:03:26.744Z,467.00
2023-05-19T05:03:56.509Z,467.00
2023-05-19T05:04:26.557Z,468.00
2023-05-19T05:04:56.574Z,466.00
2023-05-19T05:05:26.623Z,463.00
2023-05-19T05:05:56.686Z,463.00
2023-05-19T05:06:26.707Z,464.00
2023-05-19T05:06:56.762Z,461.00
2023-05-19T05:07:26.798Z,460.00
2023-05-19T05:07:56.840Z,462.00
2023-05-19T05:08:26.897Z,463.00
2023-05-19T05:08:56.963Z,466.00
2023-05-19T05:09:27.010Z,466.00
2023-05-19T05:09:57.036Z,466.00
2023-05-19T05:10:27.090Z,462.00
2023-05-19T05:10:57.166Z,461.00
2023-05-19T05:11:27.226Z,462.00
2023-05-19T05:11:57.313Z,466.00
2023-05-19T05:12:27.431Z,464.00
2023-05-19T05:12:57.483Z,464.00
2023-05-19T05:13:27.585Z,463.00
2023-05-19T05:13:57.687Z,464.00
2023-05-19T05:14:27.782Z,467.00
2023-05-19T05:14:57.862Z,468.00
2023-05-19T05:15:27.943Z,467.00
2023-05-19T05:15:58.063Z,467.00
2023-05-19T05:16:28.219Z,468.00
2023-05-19T05:16:58.169Z,466.00
2023-05-19T05:17:28.278Z,468.00
2023-05-19T05:17:58.405Z,462.00
2023-05-19T05:18:28.309Z,466.00
2023-05-19T05:18:58.471Z,467.00
2023-05-19T05:19:28.625Z,468.00
2023-05-19T05:19:58.570Z,466.00
2023-05-19T05:20:28.654Z,463.00
2023-05-19T05:20:58.733Z,465.00
2023-05-19T05:21:28.812Z,466.00
2023-05-19T05:21:58.909Z,466.00
2023-05-19T05:22:29.005Z,467.00
2023-05-19T05:22:59.092Z,465.00
2023-05-19T05:23:29.177Z,465.00
2023-05-19T05:23:59.266Z,466.00
2023-05-19T05:24:29.347Z,464.00
2023-05-19T05:24:59.425Z,463.00
2023-05-19T05:25:29.549Z,462.00
2023-05-19T05:25:59.512Z,461.00
2023-05-19T05:26:29.607Z,461.00
2023-05-19T05:26:59.665Z,462.00
2023-05-19T05:27:29.816Z,464.00
2023-05-19T05:27:59.774Z,463.00
2023-05-19T05:28:29.877Z,463.00
2023-05-19T05:28:59.946Z,463.00
2023-05-19T05:29:30.036Z,466.00
2023-05-19T05:30:00.147Z,466.00
2023-05-19T05:30:30.216Z,463.00
2023-05-19T05:31:00.291Z,465.00
2023-05-19T05:31:30.379Z,460.00
2023-05-19T05:32:00.487Z,466.00
2023-05-19T05:32:30.692Z,465.00
2023-05-19T05:33:00.699Z,466.00
2023-05-19T05:33:30.797Z,464.00
2023-05-19T05:34:00.779Z,465.00
2023-05-19T05:34:30.863Z,462.00
2023-05-19T05:35:00.955Z,464.00
2023-05-19T05:35:31.159Z,462.00
2023-05-19T05:36:01.054Z,464.00
2023-05-19T05:36:31.153Z,463.00
2023-05-19T05:37:01.237Z,464.00
2023-05-19T05:37:31.326Z,470.00
2023-05-19T05:38:01.429Z,466.00
2023-05-19T05:38:31.517Z,467.00
2023-05-19T05:39:01.597Z,467.00
2023-05-19T05:39:31.686Z,464.00
2023-05-19T05:40:01.764Z,462.00
2023-05-19T05:40:31.863Z,466.00
2023-05-19T05:41:01.961Z,459.00
2023-05-19T05:41:32.060Z,462.00
2023-05-19T05:42:02.152Z,461.00
2023-05-19T05:42:32.269Z,464.00
2023-05-19T05:43:02.329Z,460.00
2023-05-19T05:43:32.406Z,461.00
2023-05-19T05:44:02.486Z,463.00
2023-05-19T05:44:32.593Z,465.00
2023-05-19T05:45:02.684Z,462.00
2023-05-19T05:45:33.004Z,462.00
2023-05-19T05:46:02.863Z,464.00
2023-05-19T05:46:32.975Z,464.00
2023-05-19T05:47:02.912Z,465.00
2023-05-19T05:47:33.048Z,466.00
2023-05-19T05:48:03.067Z,467.00
2023-05-19T05:48:33.127Z,469.00
2023-05-19T05:49:03.216Z,466.00
2023-05-19T05:49:33.297Z,470.00
2023-05-19T05:50:03.380Z,469.00
2023-05-19T05:50:33.390Z,467.00
2023-05-19T05:51:03.477Z,467.00
2023-05-19T05:51:33.560Z,468.00
2023-05-19T05:52:06.217Z,468.00
2023-05-19T05:52:33.753Z,470.00
2023-05-19T05:53:03.840Z,471.00
2023-05-19T05:53:33.925Z,471.00
2023-05-19T05:54:04.025Z,473.00
2023-05-19T05:54:34.111Z,471.00
2023-05-19T05:55:04.187Z,471.00
2023-05-19T05:55:34.566Z,469.00
2023-05-19T05:56:04.295Z,469.00
2023-05-19T05:56:34.381Z,471.00
2023-05-19T05:57:04.453Z,471.00
2023-05-19T05:57:34.580Z,467.00
2023-05-19T05:58:04.641Z,468.00
2023-05-19T05:58:36.293Z,467.00
2023-05-19T05:59:04.740Z,469.00
2023-05-19T05:59:34.841Z,467.00
2023-05-19T06:00:05.187Z,468.00
2023-05-19T06:00:35.401Z,469.00
2023-05-19T06:01:35.711Z,462.00
2023-05-19T06:02:05.173Z,462.00
2023-05-19T06:02:35.170Z,465.00
2023-05-19T06:03:05.252Z,464.00
2023-05-19T06:03:35.217Z,464.00
2023-05-19T06:04:05.217Z,464.00
2023-05-19T06:04:35.262Z,464.00
2023-05-19T06:05:05.381Z,464.00
2023-05-19T06:05:35.386Z,462.00
2023-05-19T06:06:05.650Z,461.00
2023-05-19T06:06:35.492Z,462.00
2023-05-19T06:07:05.526Z,464.00
2023-05-19T06:07:35.560Z,463.00
2023-05-19T06:08:05.610Z,465.00
2023-05-19T06:08:35.656Z,464.00
2023-05-19T06:09:05.836Z,465.00
2023-05-19T06:09:35.763Z,466.00
2023-05-19T06:10:36.222Z,468.00
2023-05-19T06:11:05.943Z,467.00
2023-05-19T06:11:36.025Z,467.00
2023-05-19T06:12:06.128Z,466.00
2023-05-19T06:12:36.191Z,465.00
2023-05-19T06:13:06.325Z,466.00
2023-05-19T06:13:36.291Z,465.00
2023-05-19T06:14:06.473Z,465.00
2023-05-19T06:14:36.459Z,465.00
2023-05-19T06:15:06.556Z,466.00
2023-05-19T06:15:36.663Z,467.00
2023-05-19T06:16:06.748Z,466.00
2023-05-19T06:16:36.815Z,467.00
2023-05-19T06:17:06.814Z,467.00
2023-05-19T06:17:36.903Z,466.00